sensor_id;sensor_type;location;lat;lon;timestamp;P1;durP1;ratioP1;P2;durP2;ratioP2
23159;SDS011;11748;50.844;4.396;2024-03-02T00:01:39;0.77;;;0.70;;
23159;SDS011;11748;50.844;4.396;2024-03-02T00:04:06;0.77;;;0.60;;
23159;SDS011;11748;50.844;4.396;2024-03-02T00:06:34;1.55;;;0.60;;
23159;SDS011;11748;50.844;4.396;2024-03-02T00:09:00;1.08;;;0.80;;
23159;SDS011;11748;50.844;4.396;2024-03-02T00:11:25;2.03;;;0.70;;
23159;SDS011;11748;50.844;4.396;2024-03-02T00:13:58;0.55;;;0.55;;
23159;SDS011;11748;50.844;4.396;2024-03-02T00:19:03;0.80;;;0.60;;
23159;SDS011;11748;50.844;4.396;2024-03-02T00:21:30;0.77;;;0.60;;
23159;SDS011;11748;50.844;4.396;2024-03-02T00:26:30;1.73;;;0.60;;
23159;SDS011;11748;50.844;4.396;2024-03-02T00:28:57;0.77;;;0.70;;
23159;SDS011;11748;50.844;4.396;2024-03-02T00:33:54;0.98;;;0.60;;
23159;SDS011;11748;50.844;4.396;2024-03-02T00:36:26;1.17;;;0.55;;
23159;SDS011;11748;50.844;4.396;2024-03-02T00:38:54;1.20;;;0.70;;
23159;SDS011;11748;50.844;4.396;2024-03-02T00:41:30;1.55;;;0.80;;
23159;SDS011;11748;50.844;4.396;2024-03-02T00:43:58;1.48;;;0.55;;
23159;SDS011;11748;50.844;4.396;2024-03-02T00:46:38;0.82;;;0.43;;
23159;SDS011;11748;50.844;4.396;2024-03-02T00:49:18;0.57;;;0.57;;
23159;SDS011;11748;50.844;4.396;2024-03-02T00:51:48;0.50;;;0.50;;
23159;SDS011;11748;50.844;4.396;2024-03-02T00:54:23;2.15;;;0.50;;
23159;SDS011;11748;50.844;4.396;2024-03-02T00:56:51;0.70;;;0.50;;
23159;SDS011;11748;50.844;4.396;2024-03-02T00:59:36;2.17;;;0.50;;
23159;SDS011;11748;50.844;4.396;2024-03-02T01:02:02;1.27;;;0.40;;
23159;SDS011;11748;50.844;4.396;2024-03-02T01:04:27;0.40;;;0.40;;
23159;SDS011;11748;50.844;4.396;2024-03-02T01:06:53;1.00;;;0.55;;
23159;SDS011;11748;50.844;4.396;2024-03-02T01:09:19;0.63;;;0.50;;
23159;SDS011;11748;50.844;4.396;2024-03-02T01:11:44;0.57;;;0.57;;
23159;SDS011;11748;50.844;4.396;2024-03-02T01:14:10;0.82;;;0.50;;
23159;SDS011;11748;50.844;4.396;2024-03-02T01:16:35;0.60;;;0.50;;
23159;SDS011;11748;50.844;4.396;2024-03-02T01:19:01;0.65;;;0.50;;
23159;SDS011;11748;50.844;4.396;2024-03-02T01:21:27;0.40;;;0.40;;
23159;SDS011;11748;50.844;4.396;2024-03-02T01:23:52;0.65;;;0.50;;
23159;SDS011;11748;50.844;4.396;2024-03-02T01:26:18;1.65;;;0.70;;
23159;SDS011;11748;50.844;4.396;2024-03-02T01:28:45;2.40;;;0.50;;
23159;SDS011;11748;50.844;4.396;2024-03-02T01:31:11;0.60;;;0.30;;
23159;SDS011;11748;50.844;4.396;2024-03-02T01:33:40;1.02;;;0.30;;
23159;SDS011;11748;50.844;4.396;2024-03-02T01:36:05;1.45;;;0.45;;
23159;SDS011;11748;50.844;4.396;2024-03-02T01:38:33;1.60;;;0.70;;
23159;SDS011;11748;50.844;4.396;2024-03-02T01:41:00;0.98;;;0.55;;
23159;SDS011;11748;50.844;4.396;2024-03-02T01:43:28;0.70;;;0.50;;
23159;SDS011;11748;50.844;4.396;2024-03-02T01:45:56;2.78;;;0.68;;
23159;SDS011;11748;50.844;4.396;2024-03-02T01:48:25;0.80;;;0.40;;
23159;SDS011;11748;50.844;4.396;2024-03-02T01:50:56;0.85;;;0.40;;
23159;SDS011;11748;50.844;4.396;2024-03-02T01:53:23;0.60;;;0.55;;
23159;SDS011;11748;50.844;4.396;2024-03-02T01:55:50;1.27;;;0.60;;
23159;SDS011;11748;50.844;4.396;2024-03-02T01:58:16;1.92;;;0.60;;
23159;SDS011;11748;50.844;4.396;2024-03-02T02:00:47;1.75;;;0.55;;
23159;SDS011;11748;50.844;4.396;2024-03-02T02:03:15;0.73;;;0.52;;
23159;SDS011;11748;50.844;4.396;2024-03-02T02:05:41;1.15;;;0.70;;
23159;SDS011;11748;50.844;4.396;2024-03-02T02:08:08;1.17;;;0.60;;
23159;SDS011;11748;50.844;4.396;2024-03-02T02:10:34;1.65;;;0.57;;
23159;SDS011;11748;50.844;4.396;2024-03-02T02:13:01;2.05;;;0.50;;
23159;SDS011;11748;50.844;4.396;2024-03-02T02:15:30;1.55;;;0.50;;
23159;SDS011;11748;50.844;4.396;2024-03-02T02:17:58;0.55;;;0.50;;
23159;SDS011;11748;50.844;4.396;2024-03-02T02:20:25;2.03;;;0.85;;
23159;SDS011;11748;50.844;4.396;2024-03-02T02:25:24;1.42;;;0.57;;
23159;SDS011;11748;50.844;4.396;2024-03-02T02:30:21;3.60;;;0.50;;
23159;SDS011;11748;50.844;4.396;2024-03-02T02:32:51;2.15;;;0.70;;
23159;SDS011;11748;50.844;4.396;2024-03-02T02:35:18;2.33;;;0.70;;
23159;SDS011;11748;50.844;4.396;2024-03-02T02:37:44;1.95;;;0.70;;
23159;SDS011;11748;50.844;4.396;2024-03-02T02:40:11;1.42;;;0.70;;
23159;SDS011;11748;50.844;4.396;2024-03-02T02:42:37;1.65;;;0.60;;
23159;SDS011;11748;50.844;4.396;2024-03-02T02:45:06;1.88;;;0.70;;
23159;SDS011;11748;50.844;4.396;2024-03-02T02:47:32;1.45;;;0.73;;
23159;SDS011;11748;50.844;4.396;2024-03-02T02:52:33;3.28;;;0.75;;
23159;SDS011;11748;50.844;4.396;2024-03-02T02:55:03;2.40;;;0.60;;
23159;SDS011;11748;50.844;4.396;2024-03-02T02:57:30;0.80;;;0.60;;
23159;SDS011;11748;50.844;4.396;2024-03-02T03:00:00;3.65;;;0.70;;
23159;SDS011;11748;50.844;4.396;2024-03-02T03:02:34;3.97;;;1.13;;
23159;SDS011;11748;50.844;4.396;2024-03-02T03:05:01;2.65;;;1.30;;
23159;SDS011;11748;50.844;4.396;2024-03-02T03:07:27;2.30;;;0.70;;
23159;SDS011;11748;50.844;4.396;2024-03-02T03:09:53;3.35;;;0.75;;
23159;SDS011;11748;50.844;4.396;2024-03-02T03:12:20;1.77;;;0.77;;
23159;SDS011;11748;50.844;4.396;2024-03-02T03:14:48;1.58;;;0.70;;
23159;SDS011;11748;50.844;4.396;2024-03-02T03:17:14;1.40;;;0.70;;
23159;SDS011;11748;50.844;4.396;2024-03-02T03:19:41;1.67;;;0.57;;
23159;SDS011;11748;50.844;4.396;2024-03-02T03:22:07;1.45;;;0.70;;
23159;SDS011;11748;50.844;4.396;2024-03-02T03:24:34;3.97;;;0.98;;
23159;SDS011;11748;50.844;4.396;2024-03-02T03:27:00;2.30;;;0.95;;
23159;SDS011;11748;50.844;4.396;2024-03-02T03:29:25;1.42;;;0.80;;
23159;SDS011;11748;50.844;4.396;2024-03-02T03:31:51;3.38;;;0.77;;
23159;SDS011;11748;50.844;4.396;2024-03-02T03:36:45;2.42;;;0.88;;
23159;SDS011;11748;50.844;4.396;2024-03-02T03:39:12;3.05;;;0.65;;
23159;SDS011;11748;50.844;4.396;2024-03-02T03:41:38;3.55;;;0.98;;
23159;SDS011;11748;50.844;4.396;2024-03-02T03:44:05;2.05;;;0.80;;
23159;SDS011;11748;50.844;4.396;2024-03-02T03:46:30;3.55;;;0.73;;
23159;SDS011;11748;50.844;4.396;2024-03-02T03:48:56;1.15;;;0.93;;
23159;SDS011;11748;50.844;4.396;2024-03-02T03:51:22;1.65;;;0.70;;
23159;SDS011;11748;50.844;4.396;2024-03-02T03:53:50;1.90;;;0.70;;
23159;SDS011;11748;50.844;4.396;2024-03-02T03:56:16;2.78;;;0.77;;
23159;SDS011;11748;50.844;4.396;2024-03-02T03:58:42;2.65;;;0.98;;
23159;SDS011;11748;50.844;4.396;2024-03-02T04:01:08;2.78;;;0.90;;
23159;SDS011;11748;50.844;4.396;2024-03-02T04:03:34;2.97;;;0.80;;
23159;SDS011;11748;50.844;4.396;2024-03-02T04:06:00;5.93;;;0.80;;
23159;SDS011;11748;50.844;4.396;2024-03-02T04:08:25;4.18;;;0.80;;
23159;SDS011;11748;50.844;4.396;2024-03-02T04:10:51;2.38;;;0.82;;
23159;SDS011;11748;50.844;4.396;2024-03-02T04:13:17;3.10;;;0.70;;
23159;SDS011;11748;50.844;4.396;2024-03-02T04:15:42;1.92;;;0.60;;
23159;SDS011;11748;50.844;4.396;2024-03-02T04:18:08;3.78;;;1.17;;
23159;SDS011;11748;50.844;4.396;2024-03-02T04:20:33;3.80;;;0.80;;
23159;SDS011;11748;50.844;4.396;2024-03-02T04:22:59;1.85;;;0.70;;
23159;SDS011;11748;50.844;4.396;2024-03-02T04:25:25;1.83;;;0.70;;
23159;SDS011;11748;50.844;4.396;2024-03-02T04:27:50;2.65;;;0.82;;
23159;SDS011;11748;50.844;4.396;2024-03-02T04:30:16;2.20;;;0.70;;
23159;SDS011;11748;50.844;4.396;2024-03-02T04:32:45;1.15;;;0.82;;
23159;SDS011;11748;50.844;4.396;2024-03-02T04:35:14;4.30;;;0.80;;
23159;SDS011;11748;50.844;4.396;2024-03-02T04:37:40;2.25;;;0.90;;
23159;SDS011;11748;50.844;4.396;2024-03-02T04:40:05;1.13;;;0.70;;
23159;SDS011;11748;50.844;4.396;2024-03-02T04:42:35;2.40;;;0.93;;
23159;SDS011;11748;50.844;4.396;2024-03-02T04:45:01;6.43;;;0.80;;
23159;SDS011;11748;50.844;4.396;2024-03-02T04:47:27;5.07;;;0.93;;
23159;SDS011;11748;50.844;4.396;2024-03-02T04:49:53;2.70;;;0.93;;
23159;SDS011;11748;50.844;4.396;2024-03-02T04:52:19;2.42;;;0.60;;
23159;SDS011;11748;50.844;4.396;2024-03-02T04:54:45;2.38;;;0.80;;
23159;SDS011;11748;50.844;4.396;2024-03-02T04:57:29;2.50;;;1.00;;
23159;SDS011;11748;50.844;4.396;2024-03-02T04:59:54;3.20;;;0.93;;
23159;SDS011;11748;50.844;4.396;2024-03-02T05:02:20;3.60;;;1.10;;
23159;SDS011;11748;50.844;4.396;2024-03-02T05:04:46;3.67;;;0.82;;
23159;SDS011;11748;50.844;4.396;2024-03-02T05:07:13;2.80;;;0.80;;
23159;SDS011;11748;50.844;4.396;2024-03-02T05:09:39;2.42;;;0.98;;
23159;SDS011;11748;50.844;4.396;2024-03-02T05:12:05;5.30;;;1.58;;
23159;SDS011;11748;50.844;4.396;2024-03-02T05:14:57;4.57;;;1.10;;
23159;SDS011;11748;50.844;4.396;2024-03-02T05:17:22;3.75;;;0.85;;
23159;SDS011;11748;50.844;4.396;2024-03-02T05:19:50;2.90;;;0.90;;
23159;SDS011;11748;50.844;4.396;2024-03-02T05:22:18;2.95;;;1.08;;
23159;SDS011;11748;50.844;4.396;2024-03-02T05:24:44;2.60;;;0.90;;
23159;SDS011;11748;50.844;4.396;2024-03-02T05:27:10;5.85;;;0.93;;
23159;SDS011;11748;50.844;4.396;2024-03-02T05:29:35;2.70;;;1.02;;
23159;SDS011;11748;50.844;4.396;2024-03-02T05:32:03;2.63;;;0.98;;
23159;SDS011;11748;50.844;4.396;2024-03-02T05:34:28;4.53;;;0.90;;
23159;SDS011;11748;50.844;4.396;2024-03-02T05:36:55;4.78;;;0.90;;
23159;SDS011;11748;50.844;4.396;2024-03-02T05:39:22;5.90;;;0.93;;
23159;SDS011;11748;50.844;4.396;2024-03-02T05:41:48;4.88;;;1.25;;
23159;SDS011;11748;50.844;4.396;2024-03-02T05:44:14;4.60;;;0.82;;
23159;SDS011;11748;50.844;4.396;2024-03-02T05:46:41;4.28;;;0.80;;
23159;SDS011;11748;50.844;4.396;2024-03-02T05:49:10;5.00;;;0.93;;
23159;SDS011;11748;50.844;4.396;2024-03-02T05:51:35;5.10;;;1.00;;
23159;SDS011;11748;50.844;4.396;2024-03-02T05:54:02;4.97;;;1.10;;
23159;SDS011;11748;50.844;4.396;2024-03-02T05:56:28;1.75;;;0.80;;
23159;SDS011;11748;50.844;4.396;2024-03-02T05:58:57;4.00;;;0.80;;
23159;SDS011;11748;50.844;4.396;2024-03-02T06:01:34;5.38;;;1.00;;
23159;SDS011;11748;50.844;4.396;2024-03-02T06:03:59;3.17;;;1.05;;
23159;SDS011;11748;50.844;4.396;2024-03-02T06:06:25;4.10;;;1.05;;
23159;SDS011;11748;50.844;4.396;2024-03-02T06:08:51;3.00;;;1.13;;
23159;SDS011;11748;50.844;4.396;2024-03-02T06:11:21;5.53;;;1.00;;
23159;SDS011;11748;50.844;4.396;2024-03-02T06:13:47;3.75;;;0.98;;
23159;SDS011;11748;50.844;4.396;2024-03-02T06:16:16;4.55;;;1.08;;
23159;SDS011;11748;50.844;4.396;2024-03-02T06:18:44;6.00;;;1.05;;
23159;SDS011;11748;50.844;4.396;2024-03-02T06:21:11;3.33;;;0.98;;
23159;SDS011;11748;50.844;4.396;2024-03-02T06:23:38;4.88;;;1.50;;
23159;SDS011;11748;50.844;4.396;2024-03-02T06:26:03;2.00;;;0.93;;
23159;SDS011;11748;50.844;4.396;2024-03-02T06:28:29;3.50;;;1.05;;
23159;SDS011;11748;50.844;4.396;2024-03-02T06:30:55;5.88;;;1.40;;
23159;SDS011;11748;50.844;4.396;2024-03-02T06:33:20;2.38;;;1.08;;
23159;SDS011;11748;50.844;4.396;2024-03-02T06:35:48;6.47;;;1.55;;
23159;SDS011;11748;50.844;4.396;2024-03-02T06:38:14;5.38;;;1.50;;
23159;SDS011;11748;50.844;4.396;2024-03-02T06:40:39;6.35;;;1.48;;
23159;SDS011;11748;50.844;4.396;2024-03-02T06:43:05;4.18;;;1.30;;
23159;SDS011;11748;50.844;4.396;2024-03-02T06:45:34;7.20;;;1.85;;
23159;SDS011;11748;50.844;4.396;2024-03-02T06:48:00;3.00;;;1.42;;
23159;SDS011;11748;50.844;4.396;2024-03-02T06:50:27;5.70;;;1.90;;
23159;SDS011;11748;50.844;4.396;2024-03-02T06:52:53;6.28;;;1.30;;
23159;SDS011;11748;50.844;4.396;2024-03-02T06:55:21;4.60;;;1.45;;
23159;SDS011;11748;50.844;4.396;2024-03-02T06:57:49;4.80;;;1.52;;
23159;SDS011;11748;50.844;4.396;2024-03-02T07:00:15;4.85;;;1.40;;
23159;SDS011;11748;50.844;4.396;2024-03-02T07:02:44;4.60;;;1.48;;
23159;SDS011;11748;50.844;4.396;2024-03-02T07:05:10;3.85;;;0.93;;
23159;SDS011;11748;50.844;4.396;2024-03-02T07:07:41;4.68;;;1.40;;
23159;SDS011;11748;50.844;4.396;2024-03-02T07:10:11;3.80;;;0.80;;
23159;SDS011;11748;50.844;4.396;2024-03-02T07:12:36;6.53;;;1.42;;
23159;SDS011;11748;50.844;4.396;2024-03-02T07:15:03;4.78;;;1.63;;
23159;SDS011;11748;50.844;4.396;2024-03-02T07:17:29;6.15;;;1.08;;
23159;SDS011;11748;50.844;4.396;2024-03-02T07:19:56;5.03;;;1.55;;
23159;SDS011;11748;50.844;4.396;2024-03-02T07:22:23;7.50;;;1.08;;
23159;SDS011;11748;50.844;4.396;2024-03-02T07:24:50;2.65;;;1.13;;
23159;SDS011;11748;50.844;4.396;2024-03-02T07:27:16;5.00;;;1.20;;
23159;SDS011;11748;50.844;4.396;2024-03-02T07:29:42;3.78;;;1.02;;
23159;SDS011;11748;50.844;4.396;2024-03-02T07:32:09;3.67;;;1.27;;
23159;SDS011;11748;50.844;4.396;2024-03-02T07:34:36;4.82;;;1.23;;
23159;SDS011;11748;50.844;4.396;2024-03-02T07:37:02;6.22;;;1.40;;
23159;SDS011;11748;50.844;4.396;2024-03-02T07:39:28;6.13;;;1.02;;
23159;SDS011;11748;50.844;4.396;2024-03-02T07:41:55;3.63;;;1.25;;
23159;SDS011;11748;50.844;4.396;2024-03-02T07:44:20;3.88;;;0.95;;
23159;SDS011;11748;50.844;4.396;2024-03-02T07:46:47;5.85;;;1.20;;
23159;SDS011;11748;50.844;4.396;2024-03-02T07:49:16;4.28;;;1.00;;
23159;SDS011;11748;50.844;4.396;2024-03-02T07:51:42;7.85;;;1.50;;
23159;SDS011;11748;50.844;4.396;2024-03-02T07:54:08;7.05;;;1.05;;
23159;SDS011;11748;50.844;4.396;2024-03-02T07:56:34;3.53;;;1.40;;
23159;SDS011;11748;50.844;4.396;2024-03-02T07:59:01;7.22;;;1.42;;
23159;SDS011;11748;50.844;4.396;2024-03-02T08:01:30;6.45;;;1.50;;
23159;SDS011;11748;50.844;4.396;2024-03-02T08:03:58;7.03;;;1.52;;
23159;SDS011;11748;50.844;4.396;2024-03-02T08:06:25;3.72;;;1.10;;
23159;SDS011;11748;50.844;4.396;2024-03-02T08:08:53;7.78;;;1.38;;
23159;SDS011;11748;50.844;4.396;2024-03-02T08:11:21;9.30;;;1.50;;
23159;SDS011;11748;50.844;4.396;2024-03-02T08:13:47;5.55;;;1.50;;
23159;SDS011;11748;50.844;4.396;2024-03-02T08:16:14;9.40;;;1.63;;
23159;SDS011;11748;50.844;4.396;2024-03-02T08:18:41;4.28;;;1.50;;
23159;SDS011;11748;50.844;4.396;2024-03-02T08:21:08;4.38;;;1.48;;
23159;SDS011;11748;50.844;4.396;2024-03-02T08:23:34;4.90;;;1.58;;
23159;SDS011;11748;50.844;4.396;2024-03-02T08:26:00;5.22;;;1.38;;
23159;SDS011;11748;50.844;4.396;2024-03-02T08:28:26;7.22;;;1.45;;
23159;SDS011;11748;50.844;4.396;2024-03-02T08:30:52;5.20;;;1.30;;
23159;SDS011;11748;50.844;4.396;2024-03-02T08:33:18;8.38;;;1.35;;
23159;SDS011;11748;50.844;4.396;2024-03-02T08:35:44;7.40;;;1.48;;
23159;SDS011;11748;50.844;4.396;2024-03-02T08:38:09;4.30;;;1.30;;
23159;SDS011;11748;50.844;4.396;2024-03-02T08:40:35;6.10;;;1.38;;
23159;SDS011;11748;50.844;4.396;2024-03-02T08:43:01;6.07;;;1.40;;
23159;SDS011;11748;50.844;4.396;2024-03-02T08:45:26;4.72;;;1.40;;
23159;SDS011;11748;50.844;4.396;2024-03-02T08:47:52;5.53;;;1.20;;
23159;SDS011;11748;50.844;4.396;2024-03-02T08:50:18;3.97;;;1.00;;
23159;SDS011;11748;50.844;4.396;2024-03-02T08:52:45;5.07;;;1.35;;
23159;SDS011;11748;50.844;4.396;2024-03-02T08:55:10;8.25;;;1.30;;
23159;SDS011;11748;50.844;4.396;2024-03-02T08:57:37;9.32;;;1.52;;
23159;SDS011;11748;50.844;4.396;2024-03-02T09:00:03;6.72;;;1.45;;
23159;SDS011;11748;50.844;4.396;2024-03-02T09:02:30;7.55;;;1.40;;
23159;SDS011;11748;50.844;4.396;2024-03-02T09:04:57;5.68;;;1.70;;
23159;SDS011;11748;50.844;4.396;2024-03-02T09:07:23;7.45;;;1.40;;
23159;SDS011;11748;50.844;4.396;2024-03-02T09:09:48;4.78;;;1.15;;
23159;SDS011;11748;50.844;4.396;2024-03-02T09:12:14;7.97;;;0.95;;
23159;SDS011;11748;50.844;4.396;2024-03-02T09:14:40;6.00;;;1.10;;
23159;SDS011;11748;50.844;4.396;2024-03-02T09:17:08;4.78;;;1.10;;
23159;SDS011;11748;50.844;4.396;2024-03-02T09:19:35;8.55;;;1.42;;
23159;SDS011;11748;50.844;4.396;2024-03-02T09:22:02;4.45;;;1.13;;
23159;SDS011;11748;50.844;4.396;2024-03-02T09:27:00;5.45;;;0.98;;
23159;SDS011;11748;50.844;4.396;2024-03-02T09:29:25;4.80;;;1.83;;
23159;SDS011;11748;50.844;4.396;2024-03-02T09:31:51;6.18;;;1.30;;
23159;SDS011;11748;50.844;4.396;2024-03-02T09:34:17;6.95;;;1.63;;
23159;SDS011;11748;50.844;4.396;2024-03-02T09:36:43;3.45;;;1.05;;
23159;SDS011;11748;50.844;4.396;2024-03-02T09:39:08;7.70;;;1.58;;
23159;SDS011;11748;50.844;4.396;2024-03-02T09:41:35;5.45;;;1.20;;
23159;SDS011;11748;50.844;4.396;2024-03-02T09:44:02;7.43;;;1.50;;
23159;SDS011;11748;50.844;4.396;2024-03-02T09:46:28;7.90;;;1.33;;
23159;SDS011;11748;50.844;4.396;2024-03-02T09:48:54;8.98;;;1.10;;
23159;SDS011;11748;50.844;4.396;2024-03-02T09:51:22;4.50;;;0.98;;
23159;SDS011;11748;50.844;4.396;2024-03-02T09:53:48;4.28;;;1.60;;
23159;SDS011;11748;50.844;4.396;2024-03-02T09:56:15;6.18;;;1.40;;
23159;SDS011;11748;50.844;4.396;2024-03-02T09:58:43;8.65;;;1.35;;
23159;SDS011;11748;50.844;4.396;2024-03-02T10:01:10;10.77;;;1.42;;
23159;SDS011;11748;50.844;4.396;2024-03-02T10:03:36;8.43;;;1.55;;
23159;SDS011;11748;50.844;4.396;2024-03-02T10:08:55;7.00;;;1.00;;
23159;SDS011;11748;50.844;4.396;2024-03-02T10:11:31;5.00;;;1.00;;
23159;SDS011;11748;50.844;4.396;2024-03-02T10:14:04;6.35;;;1.52;;
23159;SDS011;11748;50.844;4.396;2024-03-02T10:16:40;13.02;;;2.00;;
23159;SDS011;11748;50.844;4.396;2024-03-02T10:19:19;7.55;;;1.17;;
23159;SDS011;11748;50.844;4.396;2024-03-02T10:24:14;9.30;;;1.73;;
23159;SDS011;11748;50.844;4.396;2024-03-02T10:26:40;7.20;;;1.08;;
23159;SDS011;11748;50.844;4.396;2024-03-02T10:29:10;5.85;;;1.05;;
23159;SDS011;11748;50.844;4.396;2024-03-02T10:31:45;5.25;;;1.30;;
23159;SDS011;11748;50.844;4.396;2024-03-02T10:34:12;4.38;;;1.13;;
23159;SDS011;11748;50.844;4.396;2024-03-02T10:36:42;3.58;;;1.20;;
23159;SDS011;11748;50.844;4.396;2024-03-02T10:39:11;7.78;;;1.70;;
23159;SDS011;11748;50.844;4.396;2024-03-02T10:41:38;6.18;;;1.00;;
23159;SDS011;11748;50.844;4.396;2024-03-02T10:44:06;6.47;;;1.20;;
23159;SDS011;11748;50.844;4.396;2024-03-02T10:46:34;5.95;;;1.10;;
23159;SDS011;11748;50.844;4.396;2024-03-02T10:49:01;11.82;;;1.67;;
23159;SDS011;11748;50.844;4.396;2024-03-02T10:51:29;8.35;;;1.30;;
23159;SDS011;11748;50.844;4.396;2024-03-02T10:54:01;7.20;;;1.42;;
23159;SDS011;11748;50.844;4.396;2024-03-02T10:56:29;5.07;;;1.40;;
23159;SDS011;11748;50.844;4.396;2024-03-02T10:59:01;5.20;;;1.20;;
23159;SDS011;11748;50.844;4.396;2024-03-02T11:01:29;6.47;;;1.33;;
23159;SDS011;11748;50.844;4.396;2024-03-02T11:03:59;4.78;;;1.33;;
23159;SDS011;11748;50.844;4.396;2024-03-02T11:06:29;4.95;;;1.50;;
23159;SDS011;11748;50.844;4.396;2024-03-02T11:08:58;6.70;;;1.02;;
23159;SDS011;11748;50.844;4.396;2024-03-02T11:11:30;6.05;;;1.67;;
23159;SDS011;11748;50.844;4.396;2024-03-02T11:14:01;7.60;;;1.10;;
23159;SDS011;11748;50.844;4.396;2024-03-02T11:16:35;6.72;;;1.88;;
23159;SDS011;11748;50.844;4.396;2024-03-02T11:19:05;9.95;;;1.63;;
23159;SDS011;11748;50.844;4.396;2024-03-02T11:21:33;9.00;;;1.30;;
23159;SDS011;11748;50.844;4.396;2024-03-02T11:24:46;4.93;;;1.27;;
23159;SDS011;11748;50.844;4.396;2024-03-02T11:26:48;4.88;;;1.23;;
23159;SDS011;11748;50.844;4.396;2024-03-02T11:34:28;8.98;;;1.63;;
23159;SDS011;11748;50.844;4.396;2024-03-02T11:36:55;7.15;;;1.83;;
23159;SDS011;11748;50.844;4.396;2024-03-02T11:39:21;7.97;;;1.65;;
23159;SDS011;11748;50.844;4.396;2024-03-02T11:41:47;4.97;;;1.23;;
23159;SDS011;11748;50.844;4.396;2024-03-02T11:44:12;6.25;;;1.10;;
23159;SDS011;11748;50.844;4.396;2024-03-02T11:46:41;3.50;;;1.10;;
23159;SDS011;11748;50.844;4.396;2024-03-02T11:49:06;4.88;;;0.98;;
23159;SDS011;11748;50.844;4.396;2024-03-02T11:51:33;4.70;;;0.90;;
23159;SDS011;11748;50.844;4.396;2024-03-02T11:54:00;6.40;;;1.38;;
23159;SDS011;11748;50.844;4.396;2024-03-02T11:56:27;7.22;;;1.52;;
23159;SDS011;11748;50.844;4.396;2024-03-02T11:58:56;6.40;;;1.25;;
23159;SDS011;11748;50.844;4.396;2024-03-02T12:01:24;4.57;;;1.35;;
23159;SDS011;11748;50.844;4.396;2024-03-02T12:03:50;6.75;;;1.38;;
23159;SDS011;11748;50.844;4.396;2024-03-02T12:06:17;6.82;;;1.48;;
23159;SDS011;11748;50.844;4.396;2024-03-02T12:08:46;6.20;;;1.77;;
23159;SDS011;11748;50.844;4.396;2024-03-02T12:11:14;6.22;;;1.50;;
23159;SDS011;11748;50.844;4.396;2024-03-02T12:13:40;4.97;;;1.73;;
23159;SDS011;11748;50.844;4.396;2024-03-02T12:16:07;5.97;;;1.80;;
23159;SDS011;11748;50.844;4.396;2024-03-02T12:18:33;5.40;;;1.88;;
23159;SDS011;11748;50.844;4.396;2024-03-02T12:20:58;3.67;;;0.98;;
23159;SDS011;11748;50.844;4.396;2024-03-02T12:23:24;2.95;;;1.17;;
23159;SDS011;11748;50.844;4.396;2024-03-02T12:25:50;5.05;;;1.42;;
23159;SDS011;11748;50.844;4.396;2024-03-02T12:28:16;4.47;;;1.45;;
23159;SDS011;11748;50.844;4.396;2024-03-02T12:30:42;4.03;;;1.02;;
23159;SDS011;11748;50.844;4.396;2024-03-02T12:33:10;4.05;;;1.00;;
23159;SDS011;11748;50.844;4.396;2024-03-02T12:35:36;4.85;;;1.00;;
23159;SDS011;11748;50.844;4.396;2024-03-02T12:38:02;6.63;;;1.80;;
23159;SDS011;11748;50.844;4.396;2024-03-02T12:40:28;4.20;;;1.55;;
23159;SDS011;11748;50.844;4.396;2024-03-02T12:42:55;6.65;;;1.55;;
23159;SDS011;11748;50.844;4.396;2024-03-02T12:45:21;5.28;;;1.20;;
23159;SDS011;11748;50.844;4.396;2024-03-02T12:47:50;4.15;;;1.48;;
23159;SDS011;11748;50.844;4.396;2024-03-02T12:50:21;5.43;;;1.52;;
23159;SDS011;11748;50.844;4.396;2024-03-02T12:52:54;2.65;;;1.05;;
23159;SDS011;11748;50.844;4.396;2024-03-02T12:55:21;3.70;;;1.15;;
23159;SDS011;11748;50.844;4.396;2024-03-02T12:57:49;5.22;;;1.27;;
23159;SDS011;11748;50.844;4.396;2024-03-02T13:00:17;3.53;;;1.10;;
23159;SDS011;11748;50.844;4.396;2024-03-02T13:02:45;4.30;;;0.88;;
23159;SDS011;11748;50.844;4.396;2024-03-02T13:05:11;3.75;;;1.00;;
23159;SDS011;11748;50.844;4.396;2024-03-02T13:07:37;2.65;;;1.00;;
23159;SDS011;11748;50.844;4.396;2024-03-02T13:10:04;3.30;;;0.98;;
23159;SDS011;11748;50.844;4.396;2024-03-02T13:12:30;3.47;;;1.10;;
23159;SDS011;11748;50.844;4.396;2024-03-02T13:14:57;1.63;;;0.88;;
23159;SDS011;11748;50.844;4.396;2024-03-02T13:17:27;3.47;;;0.90;;
23159;SDS011;11748;50.844;4.396;2024-03-02T13:19:53;4.68;;;1.38;;
23159;SDS011;11748;50.844;4.396;2024-03-02T13:22:23;4.32;;;0.98;;
23159;SDS011;11748;50.844;4.396;2024-03-02T13:24:51;2.72;;;0.73;;
23159;SDS011;11748;50.844;4.396;2024-03-02T13:27:17;2.60;;;1.17;;
23159;SDS011;11748;50.844;4.396;2024-03-02T13:29:49;5.25;;;1.05;;
23159;SDS011;11748;50.844;4.396;2024-03-02T13:32:15;2.13;;;0.90;;
23159;SDS011;11748;50.844;4.396;2024-03-02T13:34:41;3.80;;;0.98;;
23159;SDS011;11748;50.844;4.396;2024-03-02T13:37:08;2.70;;;0.70;;
23159;SDS011;11748;50.844;4.396;2024-03-02T13:39:34;2.80;;;0.82;;
23159;SDS011;11748;50.844;4.396;2024-03-02T13:42:08;3.28;;;0.90;;
23159;SDS011;11748;50.844;4.396;2024-03-02T13:44:34;1.90;;;0.70;;
23159;SDS011;11748;50.844;4.396;2024-03-02T13:47:01;2.95;;;0.80;;
23159;SDS011;11748;50.844;4.396;2024-03-02T13:49:27;3.42;;;1.08;;
23159;SDS011;11748;50.844;4.396;2024-03-02T13:52:01;3.15;;;0.90;;
23159;SDS011;11748;50.844;4.396;2024-03-02T13:54:43;4.82;;;0.80;;
23159;SDS011;11748;50.844;4.396;2024-03-02T13:57:10;2.40;;;0.80;;
23159;SDS011;11748;50.844;4.396;2024-03-02T13:59:38;2.85;;;0.98;;
23159;SDS011;11748;50.844;4.396;2024-03-02T14:02:07;3.42;;;0.80;;
23159;SDS011;11748;50.844;4.396;2024-03-02T14:04:34;2.92;;;0.98;;
23159;SDS011;11748;50.844;4.396;2024-03-02T14:07:02;2.63;;;0.80;;
23159;SDS011;11748;50.844;4.396;2024-03-02T14:09:28;2.35;;;0.82;;
23159;SDS011;11748;50.844;4.396;2024-03-02T14:11:55;1.92;;;0.95;;
23159;SDS011;11748;50.844;4.396;2024-03-02T14:14:23;2.70;;;0.90;;
23159;SDS011;11748;50.844;4.396;2024-03-02T14:16:50;3.25;;;1.00;;
23159;SDS011;11748;50.844;4.396;2024-03-02T14:19:16;2.47;;;0.93;;
23159;SDS011;11748;50.844;4.396;2024-03-02T14:21:42;4.43;;;1.10;;
23159;SDS011;11748;50.844;4.396;2024-03-02T14:24:09;1.85;;;0.70;;
23159;SDS011;11748;50.844;4.396;2024-03-02T14:26:35;2.03;;;0.77;;
23159;SDS011;11748;50.844;4.396;2024-03-02T14:29:06;3.22;;;0.90;;
23159;SDS011;11748;50.844;4.396;2024-03-02T14:31:37;1.35;;;0.80;;
23159;SDS011;11748;50.844;4.396;2024-03-02T14:34:03;4.55;;;1.10;;
23159;SDS011;11748;50.844;4.396;2024-03-02T14:36:30;2.78;;;1.00;;
23159;SDS011;11748;50.844;4.396;2024-03-02T14:38:59;2.38;;;0.80;;
23159;SDS011;11748;50.844;4.396;2024-03-02T14:43:56;4.50;;;1.25;;
23159;SDS011;11748;50.844;4.396;2024-03-02T14:46:22;2.05;;;1.00;;
23159;SDS011;11748;50.844;4.396;2024-03-02T14:48:47;1.27;;;0.70;;
23159;SDS011;11748;50.844;4.396;2024-03-02T14:51:14;2.53;;;0.93;;
23159;SDS011;11748;50.844;4.396;2024-03-02T14:53:41;1.33;;;0.65;;
23159;SDS011;11748;50.844;4.396;2024-03-02T14:56:06;3.75;;;1.00;;
23159;SDS011;11748;50.844;4.396;2024-03-02T14:58:32;3.60;;;1.00;;
23159;SDS011;11748;50.844;4.396;2024-03-02T15:01:00;3.53;;;1.05;;
23159;SDS011;11748;50.844;4.396;2024-03-02T15:03:25;3.50;;;1.20;;
23159;SDS011;11748;50.844;4.396;2024-03-02T15:05:51;3.53;;;1.20;;
23159;SDS011;11748;50.844;4.396;2024-03-02T15:08:17;3.50;;;1.00;;
23159;SDS011;11748;50.844;4.396;2024-03-02T15:10:42;2.88;;;1.00;;
23159;SDS011;11748;50.844;4.396;2024-03-02T15:13:08;2.67;;;0.95;;
23159;SDS011;11748;50.844;4.396;2024-03-02T15:15:34;3.35;;;1.05;;
23159;SDS011;11748;50.844;4.396;2024-03-02T15:18:01;4.40;;;0.90;;
23159;SDS011;11748;50.844;4.396;2024-03-02T15:20:26;2.88;;;0.70;;
23159;SDS011;11748;50.844;4.396;2024-03-02T15:22:52;4.30;;;1.45;;